Time;durP1;ratioP1;P1;durP2;ratioP2;P2;SDS_P1;SDS_P2;PMS_P1;PMS_P2;Temp;Humidity;BMP_temperature;BMP_pressure;BME280_temperature;BME280_humidity;BME280_pressure;Samples;Min_cycle;Max_cycle;Signal;HPM_P1;HPM_P2
2023/06/02 00:01:31;;;;;;;;;;;13.30;99.90;;;;;;5074485;28;19904;-83
2023/06/02 00:03:57;;;;;;;;;;;13.20;99.90;;;;;;5074402;28;19909;-83
2023/06/02 00:06:26;;;;;;;;;;;13.10;99.90;;;;;;5074199;28;20443;-83
2023/06/02 00:08:52;;;;;;;;;;;13.10;99.90;;;;;;5073724;28;19915;-83
2023/06/02 00:11:19;;;;;;;;;;;12.90;99.90;;;;;;5074316;28;20003;-83
2023/06/02 00:13:44;;;;;;;;;;;12.80;99.90;;;;;;5074207;28;19912;-82
2023/06/02 00:16:12;;;;;;;;;;;12.80;99.90;;;;;;5073940;28;20019;-83
2023/06/02 00:18:39;;;;;;;;;;;12.80;99.90;;;;;;5074027;28;19908;-83
2023/06/02 00:21:06;;;;;;;;;;;12.60;99.90;;;;;;5073588;28;19915;-83
2023/06/02 00:23:32;;;;;;;;;;;12.50;99.90;;;;;;5074574;28;19908;-83
2023/06/02 00:25:58;;;;;;;;;;;12.40;99.90;;;;;;5073478;28;19908;-82
2023/06/02 00:28:24;;;;;;;;;;;12.40;99.90;;;;;;5073445;28;20486;-84
2023/06/02 00:30:50;;;;;;;;;;;12.30;99.90;;;;;;5073592;28;19916;-83
2023/06/02 00:33:16;;;;;;;;;;;12.20;99.90;;;;;;5072990;28;19915;-82
2023/06/02 00:35:41;;;;;;;;;;;12.10;99.90;;;;;;5073726;28;19908;-83
2023/06/02 00:38:29;;;;;;;;;;;12.00;99.90;;;;;;5073515;28;19912;-82
2023/06/02 00:40:55;;;;;;;;;;;12.00;99.90;;;;;;5107263;28;19908;-83
2023/06/02 00:43:20;;;;;;;;;;;11.90;99.90;;;;;;5073539;28;20003;-83
2023/06/02 00:45:46;;;;;;;;;;;11.80;99.90;;;;;;5073071;28;20253;-83
2023/06/02 00:48:12;;;;;;;;;;;11.70;99.90;;;;;;5073018;28;19919;-83
2023/06/02 00:50:38;;;;;;;;;;;11.60;99.90;;;;;;5073348;28;20007;-83
2023/06/02 00:53:04;;;;;;;;;;;11.60;99.90;;;;;;5056765;28;19913;-84
2023/06/02 00:55:30;;;;;;;;;;;11.60;99.90;;;;;;5073412;28;19961;-83
2023/06/02 00:57:56;;;;;;;;;;;11.50;99.90;;;;;;5056608;28;19908;-83
2023/06/02 01:00:23;;;;;;;;;;;11.40;99.90;;;;;;5072858;28;19940;-82
2023/06/02 01:02:49;;;;;;;;;;;11.30;99.90;;;;;;5073026;28;19920;-83
2023/06/02 01:05:15;;;;;;;;;;;11.30;99.90;;;;;;5056132;28;19904;-83
2023/06/02 01:07:44;;;;;;;;;;;11.20;99.90;;;;;;5089869;28;19919;-83
2023/06/02 01:10:11;;;;;;;;;;;11.20;99.90;;;;;;5071992;28;19915;-83
2023/06/02 01:12:37;;;;;;;;;;;11.10;99.90;;;;;;5072566;28;19969;-83
2023/06/02 01:15:03;;;;;;;;;;;11.00;99.90;;;;;;5072615;28;19995;-83
2023/06/02 01:17:30;;;;;;;;;;;10.90;99.90;;;;;;5072950;28;19908;-83
2023/06/02 01:19:59;;;;;;;;;;;10.90;99.90;;;;;;5072614;28;19909;-83
2023/06/02 01:22:26;;;;;;;;;;;11.00;99.90;;;;;;5072483;28;19919;-84
2023/06/02 01:24:57;;;;;;;;;;;10.90;99.90;;;;;;5072806;28;19954;-83
2023/06/02 01:27:23;;;;;;;;;;;10.90;99.90;;;;;;5072337;28;19912;-83
2023/06/02 01:29:48;;;;;;;;;;;10.90;99.90;;;;;;5072692;28;20279;-83
2023/06/02 01:32:18;;;;;;;;;;;10.90;99.90;;;;;;5072183;28;19966;-83
2023/06/02 01:34:47;;;;;;;;;;;10.80;99.90;;;;;;5072469;28;20643;-83
2023/06/02 01:37:14;;;;;;;;;;;10.70;99.90;;;;;;5072823;28;19912;-83
2023/06/02 01:39:41;;;;;;;;;;;10.70;99.90;;;;;;5072721;28;20294;-83
2023/06/02 01:42:08;;;;;;;;;;;10.60;99.90;;;;;;5070776;28;20011;-83
2023/06/02 01:44:34;;;;;;;;;;;10.60;99.90;;;;;;5061055;28;19915;-83
2023/06/02 01:47:00;;;;;;;;;;;10.60;99.90;;;;;;5071947;28;20397;-83
2023/06/02 01:49:26;;;;;;;;;;;10.50;99.90;;;;;;5072578;28;20003;-83
2023/06/02 01:51:53;;;;;;;;;;;10.40;99.90;;;;;;5072490;28;19947;-83
2023/06/02 01:54:19;;;;;;;;;;;10.40;99.90;;;;;;5071844;28;20283;-83
2023/06/02 01:56:44;;;;;;;;;;;10.40;99.90;;;;;;5072750;28;19920;-82
2023/06/02 01:59:10;;;;;;;;;;;10.40;99.90;;;;;;5073055;28;19915;-83
2023/06/02 02:01:36;;;;;;;;;;;10.30;99.90;;;;;;5072335;28;20017;-83
2023/06/02 02:04:02;;;;;;;;;;;10.30;99.90;;;;;;5072653;28;19905;-84
2023/06/02 02:06:30;;;;;;;;;;;10.30;99.90;;;;;;5072491;28;19908;-83
2023/06/02 02:08:56;;;;;;;;;;;10.20;99.90;;;;;;5072542;28;19908;-83
2023/06/02 02:11:22;;;;;;;;;;;10.10;99.90;;;;;;5072892;28;19908;-83
2023/06/02 02:13:47;;;;;;;;;;;10.10;99.90;;;;;;5072451;28;20307;-83
2023/06/02 02:16:13;;;;;;;;;;;10.10;99.90;;;;;;5072127;28;19958;-83
2023/06/02 02:18:40;;;;;;;;;;;10.00;99.90;;;;;;5054787;28;19955;-83
2023/06/02 02:21:34;;;;;;;;;;;10.00;99.90;;;;;;5072422;28;19962;-83
2023/06/02 02:23:59;;;;;;;;;;;9.90;99.90;;;;;;5064845;28;20003;-83
2023/06/02 02:26:26;;;;;;;;;;;9.80;99.90;;;;;;5071981;28;19962;-83
2023/06/02 02:28:51;;;;;;;;;;;9.80;99.90;;;;;;5072069;28;20275;-83
2023/06/02 02:31:18;;;;;;;;;;;9.70;99.90;;;;;;5072172;28;19916;-82
2023/06/02 02:33:44;;;;;;;;;;;9.70;99.90;;;;;;5072012;28;19908;-83
2023/06/02 02:36:11;;;;;;;;;;;9.70;99.90;;;;;;5071699;28;19912;-83
2023/06/02 02:38:37;;;;;;;;;;;9.60;99.90;;;;;;5071999;28;19908;-83
2023/06/02 02:41:03;;;;;;;;;;;9.60;99.90;;;;;;5071626;28;19922;-83
2023/06/02 02:43:29;;;;;;;;;;;9.50;99.90;;;;;;5073497;28;19904;-82
2023/06/02 02:45:55;;;;;;;27.67;12.57;;;9.50;99.90;;;;;;5074869;28;20275;-82
2023/06/02 02:48:20;;;;;;;;;;;9.40;99.90;;;;;;5059238;28;20533;-83
2023/06/02 02:50:46;;;;;;;;;;;9.30;99.90;;;;;;5075525;28;19909;-83
2023/06/02 02:53:15;;;;;;;;;;;9.20;99.90;;;;;;5075757;28;19915;-82
2023/06/02 02:56:18;;;;;;;;;;;9.20;99.90;;;;;;5075566;28;19908;-83
2023/06/02 02:58:44;;;;;;;;;;;9.20;99.90;;;;;;5075379;28;19919;-83
2023/06/02 03:01:15;;;;;;;;;;;9.20;99.90;;;;;;5075377;28;19904;-83
2023/06/02 03:03:41;;;;;;;;;;;9.20;99.90;;;;;;5075523;28;19908;-83
2023/06/02 03:06:07;;;;;;;;;;;9.10;99.90;;;;;;5068528;28;19998;-83
2023/06/02 03:08:32;;;;;;;;;;;9.10;99.90;;;;;;5074981;28;19924;-83
2023/06/02 03:10:58;;;;;;;;;;;9.00;99.90;;;;;;5075087;28;19908;-83
2023/06/02 03:13:24;;;;;;;;;;;9.00;99.90;;;;;;5075180;28;19912;-83
2023/06/02 03:15:51;;;;;;;;;;;8.90;99.90;;;;;;5074742;28;19908;-83
2023/06/02 03:18:19;;;;;;;;;;;8.90;99.90;;;;;;5075073;28;19936;-83
2023/06/02 03:20:48;;;;;;;;;;;8.80;99.90;;;;;;5075019;28;20376;-83
2023/06/02 03:23:15;;;;;;;;;;;8.90;99.90;;;;;;5066593;28;19909;-86
2023/06/02 03:25:42;;;;;;;;;;;8.90;99.90;;;;;;5075630;28;19973;-86
2023/06/02 03:28:08;;;;;;;;;;;8.90;99.90;;;;;;5075885;28;19912;-86
2023/06/02 03:30:34;;;;;;;;;;;8.90;99.90;;;;;;5075296;28;19923;-86
2023/06/02 03:33:00;;;;;;;;;;;8.90;99.90;;;;;;5075042;28;19908;-87
2023/06/02 03:35:27;;;;;;;;;;;8.90;99.90;;;;;;5075738;28;19908;-87
2023/06/02 03:38:18;;;;;;;;;;;8.90;99.90;;;;;;5075422;28;19912;-87
2023/06/02 03:40:47;;;;;;;;;;;8.90;99.90;;;;;;5074465;28;20481;-86
2023/06/02 03:43:13;;;;;;;;;;;8.90;99.90;;;;;;5075623;28;19909;-87
2023/06/02 03:45:40;;;;;;;;;;;8.90;99.90;;;;;;5075180;28;20279;-87
2023/06/02 03:48:05;;;;;;;;;;;8.90;99.90;;;;;;5073917;28;19920;-86
2023/06/02 03:50:31;;;;;;;;;;;9.00;99.90;;;;;;5075314;28;19916;-87
2023/06/02 03:52:57;;;;;;;;;;;9.00;99.90;;;;;;5074600;28;19923;-86
2023/06/02 03:55:24;;;;;;;;;;;9.00;99.90;;;;;;5073930;28;19908;-86
2023/06/02 03:57:50;;;;;;;;;;;9.00;99.90;;;;;;5074839;28;19942;-87
2023/06/02 04:00:16;;;;;;;;;;;9.00;99.90;;;;;;5075124;28;19953;-87
2023/06/02 04:02:41;;;;;;;;;;;9.00;99.90;;;;;;5075077;28;20371;-86
2023/06/02 04:05:11;;;;;;;;;;;9.00;99.90;;;;;;5075063;28;19912;-85
2023/06/02 04:07:37;;;;;;;;;;;9.00;99.90;;;;;;5074379;28;19912;-86
2023/06/02 04:10:03;;;;;;;;;;;9.00;99.90;;;;;;5075257;28;19959;-86
2023/06/02 04:12:29;;;;;;;;;;;9.00;99.90;;;;;;5074152;28;19955;-87
2023/06/02 04:14:55;;;;;;;;;;;8.90;99.90;;;;;;5073961;28;19912;-87
2023/06/02 04:17:21;;;;;;;;;;;9.00;99.90;;;;;;5074238;28;19962;-86
2023/06/02 04:19:47;;;;;;;;;;;9.00;99.90;;;;;;5075932;28;19909;-86
2023/06/02 04:22:12;;;;;;;;;;;9.00;99.90;;;;;;5075695;28;19908;-87
2023/06/02 04:24:41;;;;;;;;;;;9.10;99.90;;;;;;5075204;28;19908;-87
2023/06/02 04:27:06;;;;;;;;;;;9.10;99.90;;;;;;5075054;28;19912;-86
2023/06/02 04:29:33;;;;;;;;;;;9.10;99.90;;;;;;5074944;28;19991;-87
2023/06/02 04:32:01;;;;;;;;;;;9.20;99.90;;;;;;5076715;28;19915;-87
2023/06/02 04:34:28;;;;;;;;;;;9.30;99.90;;;;;;5080698;28;19962;-87
2023/06/02 04:36:54;;;;;;;;;;;9.30;99.90;;;;;;5091648;28;19912;-87
2023/06/02 04:39:22;;;;;;;;;;;9.30;99.90;;;;;;5058623;28;19908;-86
2023/06/02 04:41:49;;;;;;;;;;;9.30;99.90;;;;;;5074778;28;19917;-87
2023/06/02 04:44:18;;;;;;;;;;;9.40;99.90;;;;;;5075229;28;19909;-87
2023/06/02 04:47:10;;;;;;;;;;;9.40;99.90;;;;;;5074323;28;19947;-87
2023/06/02 04:49:36;;;;;;;;;;;9.40;99.90;;;;;;5057402;28;19999;-87
2023/06/02 04:52:08;;;;;;;;;;;9.50;99.90;;;;;;5074307;28;20356;-87
2023/06/02 04:54:34;;;;;;;;;;;9.60;99.90;;;;;;5074396;28;19903;-87
2023/06/02 04:57:00;;;;;;;;;;;9.60;99.90;;;;;;5057826;28;19990;-87
2023/06/02 04:59:27;;;;;;;;;;;9.60;99.90;;;;;;5073606;28;19915;-87
2023/06/02 05:01:52;;;;;;;;;;;9.70;99.90;;;;;;5073185;28;19908;-86
2023/06/02 05:04:19;;;;;;;;;;;9.80;99.90;;;;;;5073565;28;19912;-87
2023/06/02 05:06:45;;;;;;;;;;;9.80;99.90;;;;;;5062654;28;20042;-87
2023/06/02 05:09:11;;;;;;;;;;;9.90;99.90;;;;;;5074289;28;20363;-87
2023/06/02 05:11:37;;;;;;;;;;;9.80;99.90;;;;;;5072685;28;19914;-86
2023/06/02 05:14:04;;;;;;;;;;;9.90;99.90;;;;;;5067362;28;19947;-87
2023/06/02 05:16:31;;;;;;;;;;;10.00;99.90;;;;;;5065553;28;19908;-87
2023/06/02 05:18:58;;;;;;;;;;;10.00;99.90;;;;;;5067807;28;20304;-87
2023/06/02 05:21:23;;;;;;;;;;;10.00;99.90;;;;;;5071992;28;19995;-86
2023/06/02 05:23:49;;;;;;;;;;;10.10;99.90;;;;;;5072165;28;19955;-86
2023/06/02 05:26:15;;;;;;;;;;;10.10;99.90;;;;;;5065887;28;19950;-87
2023/06/02 05:28:42;;;;;;;;;;;10.20;99.90;;;;;;5069423;28;19916;-86
2023/06/02 05:31:09;;;;;;;;;;;10.20;99.90;;;;;;5066430;28;19929;-86
2023/06/02 05:33:34;;;;;;;;;;;10.30;99.90;;;;;;5069212;28;19952;-86
2023/06/02 05:36:00;;;;;;;;;;;10.40;99.90;;;;;;5073268;28;19915;-87
2023/06/02 05:38:26;;;;;;;;;;;10.40;99.90;;;;;;5066617;28;19908;-87
2023/06/02 05:40:52;;;;;;;;;;;10.40;99.90;;;;;;5072600;28;19935;-86
2023/06/02 05:43:17;;;;;;;;;;;10.40;99.90;;;;;;5065973;28;20378;-87
2023/06/02 05:45:43;;;;;;;;;;;10.40;99.90;;;;;;5073801;28;19908;-87
2023/06/02 05:48:10;;;;;;;;;;;10.50;99.90;;;;;;5080725;28;19923;-86
2023/06/02 05:50:41;;;;;;;;;;;10.50;99.90;;;;;;5072738;28;19930;-86
2023/06/02 05:53:07;;;;;;;;;;;10.70;99.90;;;;;;5067621;28;19947;-87
2023/06/02 05:55:33;;;;;;;;;;;10.80;99.90;;;;;;5068515;28;19908;-87
2023/06/02 05:57:59;;;;;;;;;;;10.80;99.90;;;;;;5046183;28;19908;-87
2023/06/02 06:00:26;;;;;;;;;;;10.90;99.90;;;;;;5069824;28;19909;-86
2023/06/02 06:02:53;;;;;;;;;;;10.90;99.90;;;;;;5060913;28;20430;-86
2023/06/02 06:05:26;;;;;;;;;;;11.00;99.90;;;;;;5063585;28;19938;-86
2023/06/02 06:07:52;;;;;;;;;;;11.10;99.90;;;;;;5064821;28;19912;-86
2023/06/02 06:10:18;;;;;;;;;;;11.20;99.90;;;;;;5066695;28;19909;-86
2023/06/02 06:12:44;;;;;;;;;;;11.20;99.90;;;;;;5069075;28;19912;-86
2023/06/02 06:15:10;;;;;;;;;;;11.40;99.90;;;;;;5070687;28;19915;-87
2023/06/02 06:17:45;;;;;;;;;;;11.30;99.90;;;;;;5064736;28;19909;-87
2023/06/02 06:20:11;;;;;;;;;;;11.30;99.90;;;;;;5074027;28;19915;-86
2023/06/02 06:22:36;;;;;;;;;;;11.30;99.90;;;;;;5070399;28;19908;-86
2023/06/02 06:25:02;;;;;;;;;;;11.40;99.90;;;;;;5073089;28;19908;-86
2023/06/02 06:27:28;;;;;;;;;;;11.60;99.90;;;;;;5068787;28;19919;-87
2023/06/02 06:29:54;;;;;;;;;;;11.70;99.90;;;;;;5066672;28;19938;-86
2023/06/02 06:32:19;;;;;;;;;;;11.80;99.90;;;;;;5083063;28;20311;-87
2023/06/02 06:34:45;;;;;;;;;;;11.80;99.90;;;;;;5074840;28;19915;-86
2023/06/02 06:37:11;;;;;;;;;;;11.90;99.90;;;;;;5078038;28;19957;-87
2023/06/02 06:39:37;;;;;;;;;;;11.90;99.90;;;;;;5069596;28;19916;-86
2023/06/02 06:42:03;;;;;;;;;;;12.00;99.90;;;;;;5071312;28;20280;-86
2023/06/02 06:44:41;;;;;;;;;;;12.10;99.90;;;;;;5073250;28;19912;-86
2023/06/02 06:47:07;;;;;;;;;;;12.20;99.90;;;;;;5073721;28;20363;-86
2023/06/02 06:49:34;;;;;;;;;;;12.50;99.90;;;;;;5080322;28;20288;-86
2023/06/02 06:52:00;;;;;;;;;;;12.70;99.90;;;;;;5076083;28;19908;-87
2023/06/02 06:54:26;;;;;;;;;;;12.80;99.90;;;;;;5073876;28;20370;-86
2023/06/02 06:56:51;;;;;;;;;;;12.80;99.90;;;;;;5058835;28;19913;-86
2023/06/02 06:59:17;;;;;;;;;;;12.80;99.90;;;;;;5067029;28;19912;-88
2023/06/02 07:01:43;;;;;;;;;;;12.90;99.90;;;;;;5083738;28;20003;-87
2023/06/02 07:04:09;;;;;;;;;;;12.90;99.90;;;;;;5067503;28;19909;-86
2023/06/02 07:06:36;;;;;;;;;;;12.80;99.90;;;;;;5067503;28;19908;-86
2023/06/02 07:09:02;;;;;;;;;;;12.80;99.90;;;;;;5051404;28;19974;-86
2023/06/02 07:11:28;;;;;;;;;;;13.00;99.90;;;;;;5075751;28;19912;-86
2023/06/02 07:13:55;;;;;;;;;;;13.00;99.90;;;;;;5073138;28;20271;-88
2023/06/02 07:16:21;;;;;;;;;;;13.00;99.90;;;;;;5071479;28;19909;-85
2023/06/02 07:18:50;;;;;;;;;;;13.10;99.90;;;;;;5085244;28;19908;-87
2023/06/02 07:21:15;;;;;;;;;;;13.40;99.90;;;;;;5078867;28;19942;-87
2023/06/02 07:23:41;;;;;;;;;;;14.40;99.90;;;;;;5075423;28;19904;-86
2023/06/02 07:26:06;;;;;;;;;;;15.70;99.90;;;;;;5075510;28;20351;-86
2023/06/02 07:28:32;;;;;;;;;;;17.00;99.90;;;;;;5075150;28;19920;-86
2023/06/02 07:30:58;;;;;;;;;;;17.80;99.90;;;;;;5056738;28;19904;-87
2023/06/02 07:33:23;;;;;;;;;;;18.20;99.90;;;;;;5075528;28;20033;-86
2023/06/02 07:35:49;;;;;;;;;;;17.70;99.90;;;;;;5058928;28;19991;-87
2023/06/02 07:38:14;;;;;;;;;;;16.70;99.90;;;;;;5075601;28;20010;-87
2023/06/02 07:40:40;;;;;;;;;;;15.80;99.90;;;;;;5075157;28;19908;-86
2023/06/02 07:43:06;;;;;;;;;;;15.20;99.90;;;;;;5075165;28;19915;-87
2023/06/02 07:45:31;;;;;;;;;;;14.70;99.90;;;;;;5075016;28;19916;-87
2023/06/02 07:47:57;;;;;;;;;;;14.30;99.90;;;;;;5075110;28;19918;-86
2023/06/02 07:50:23;;;;;;;;;;;14.00;99.90;;;;;;5071323;28;19908;-86
2023/06/02 07:52:48;;;;;;;;;;;14.10;99.90;;;;;;5075031;28;19909;-86
2023/06/02 07:55:14;;;;;;;;;;;14.60;99.90;;;;;;5074988;28;19913;-86
2023/06/02 07:57:40;;;;;;;;;;;15.80;99.90;;;;;;5076167;28;19908;-87
2023/06/02 08:00:12;;;;;;;;;;;17.40;99.90;;;;;;5074895;28;20318;-87
2023/06/02 08:02:40;;;;;;;;;;;19.00;99.90;;;;;;5074937;28;19934;-86
2023/06/02 08:05:06;;;;;;;;;;;20.40;99.90;;;;;;5074950;28;19915;-87
2023/06/02 08:07:31;;;;;;;;;;;21.00;99.90;;;;;;5057821;28;19912;-84
2023/06/02 08:09:57;;;;;;;;;;;22.10;99.90;;;;;;5063536;28;19908;-84
2023/06/02 08:12:23;;;;;;;;;;;21.90;99.90;;;;;;5074689;28;19908;-85
2023/06/02 08:14:48;;;;;;;;;;;22.30;99.90;;;;;;5075635;28;19909;-87
2023/06/02 08:17:14;;;;;;;;;;;23.20;97.80;;;;;;5075280;28;20005;-88
2023/06/02 08:19:39;;;;;;;;;;;23.50;95.40;;;;;;5074764;28;20366;-88
2023/06/02 08:22:05;;;;;;;;;;;23.70;94.20;;;;;;5075363;28;19909;-86
2023/06/02 08:24:31;;;;;;;;;;;24.00;92.40;;;;;;5074717;28;19914;-86
2023/06/02 08:26:57;;;;;;;;;;;24.00;91.70;;;;;;5074469;28;20322;-86
2023/06/02 08:29:23;;;;;;;;;;;24.20;91.90;;;;;;5074046;28;19959;-87
2023/06/02 08:31:49;;;;;;;;;;;23.90;90.90;;;;;;5057423;28;19912;-86
2023/06/02 08:34:20;;;;;;;;;;;23.80;90.50;;;;;;5057422;28;19965;-85
2023/06/02 08:36:49;;;;;;;;;;;23.70;89.70;;;;;;5073870;28;19961;-85
2023/06/02 08:39:15;;;;;;;;;;;23.50;89.00;;;;;;5074113;28;19904;-87
2023/06/02 08:41:41;;;;;;;;;;;23.70;88.50;;;;;;5073502;28;20482;-85
2023/06/02 08:44:07;;;;;;;;;;;23.90;88.90;;;;;;5074644;28;20039;-86
2023/06/02 08:46:32;;;;;;;;;;;23.40;89.50;;;;;;5073299;28;19908;-86
2023/06/02 08:48:59;;;;;;;;;;;22.70;90.80;;;;;;5073835;28;19939;-86
2023/06/02 08:51:25;;;;;;;;;;;22.60;90.90;;;;;;5073437;28;19912;-85
2023/06/02 08:53:50;;;;;;;;;;;22.00;91.60;;;;;;5073736;28;19946;-86
2023/06/02 08:56:16;;;;;;;;;;;22.00;91.10;;;;;;5073279;28;20410;-86
2023/06/02 08:58:45;;;;;;;;;;;22.70;91.70;;;;;;5073644;28;19955;-86
2023/06/02 09:01:11;;;;;;;;;;;23.00;89.90;;;;;;5073876;28;20259;-85
2023/06/02 09:03:36;;;;;;;;;;;23.30;91.10;;;;;;5073780;28;19904;-86
2023/06/02 09:06:22;;;;;;;;;;;23.20;90.20;;;;;;5073447;28;20359;-85
2023/06/02 09:08:51;;;;;;;;;;;23.10;90.20;;;;;;5073235;28;20310;-86
2023/06/02 09:11:19;;;;;;;;;;;24.00;88.40;;;;;;5074708;28;19909;-86
2023/06/02 09:13:45;;;;;;;;;;;24.40;84.80;;;;;;5056800;28;19912;-86
2023/06/02 09:16:10;;;;;;;;;;;24.70;83.20;;;;;;5073392;28;19915;-87
2023/06/02 09:18:36;;;;;;;;;;;25.10;82.50;;;;;;5072802;28;19916;-86
2023/06/02 09:21:02;;;;;;;;;;;25.70;81.80;;;;;;5073628;28;19904;-87
2023/06/02 09:23:41;;;;;;;;;;;26.10;78.20;;;;;;5070486;28;20275;-86
2023/06/02 09:26:24;;;;;;;;;;;26.00;77.50;;;;;;5083874;28;19908;-86
2023/06/02 09:29:08;;;;;;;;;;;26.40;77.60;;;;;;5071978;28;19916;-87
2023/06/02 09:31:54;;;;;;;;;;;26.90;75.80;;;;;;5056822;28;20264;-86
2023/06/02 09:34:24;;;;;;;;;;;27.50;73.60;;;;;;5074469;28;19916;-86
2023/06/02 09:36:53;;;;;;;;;;;27.30;72.20;;;;;;5060336;28;19908;-86
2023/06/02 09:39:33;;;;;;;;;;;26.80;73.00;;;;;;5069155;28;19909;-85
2023/06/02 09:41:59;;;;;;;;;;;27.50;72.00;;;;;;5067975;28;20355;-85
2023/06/02 09:44:25;;;;;;;;;;;27.20;71.90;;;;;;5058761;28;20283;-86
2023/06/02 09:46:50;;;;;;;;;;;26.80;72.00;;;;;;5088127;28;21136;-86
2023/06/02 09:49:16;;;;;;;;;;;27.40;73.20;;;;;;5060736;28;20027;-86
2023/06/02 09:51:42;;;;;;;;;;;27.40;71.50;;;;;;5066553;28;19904;-86
2023/06/02 09:54:08;;;;;;;;;;;27.60;70.10;;;;;;5062032;28;19909;-86
2023/06/02 09:56:36;;;;;;;;;;;27.20;70.30;;;;;;5068053;28;19974;-87
2023/06/02 09:59:03;;;;;;;;;;;26.40;70.90;;;;;;5067960;28;19908;-86
2023/06/02 10:01:28;;;;;;;;;;;26.40;73.30;;;;;;5057776;28;19908;-85
2023/06/02 10:03:54;;;;;;;;;;;26.40;69.40;;;;;;5064006;28;19918;-85
2023/06/02 10:06:23;;;;;;;;;;;26.30;72.10;;;;;;5062296;28;19956;-85
2023/06/02 10:09:09;;;;;;;;;;;25.60;70.10;;;;;;5075055;28;19963;-86
2023/06/02 10:11:43;;;;;;;;;;;24.80;71.80;;;;;;5068796;28;20271;-86
2023/06/02 10:14:26;;;;;;;;;;;24.20;73.00;;;;;;5055344;28;19991;-86
2023/06/02 10:20:06;;;;;;;;;;;23.50;77.40;;;;;;5066013;28;19915;-86
2023/06/02 10:22:31;;;;;;;;;;;23.70;75.90;;;;;;5080407;28;19908;-86
2023/06/02 10:25:10;;;;;;;;;;;23.50;77.10;;;;;;5072807;28;20378;-85
2023/06/02 10:27:37;;;;;;;;;;;23.30;75.70;;;;;;5072593;28;19961;-86
2023/06/02 10:30:03;;;;;;;;;;;23.70;76.40;;;;;;5072840;28;19912;-85
2023/06/02 10:32:33;;;;;;;;;;;23.90;77.90;;;;;;5073012;28;19931;-85
2023/06/02 10:34:59;;;;;;;;;;;23.60;76.90;;;;;;5083195;28;19958;-86
2023/06/02 10:37:26;;;;;;;;;;;23.80;78.40;;;;;;5073905;28;20333;-86
2023/06/02 10:39:55;;;;;;;;;;;23.50;79.20;;;;;;5072973;28;20346;-85
2023/06/02 10:42:24;;;;;;;;;;;23.20;78.80;;;;;;5073263;28;19962;-86
2023/06/02 10:44:52;;;;;;;;;;;23.10;77.00;;;;;;5076815;28;19914;-86
2023/06/02 10:47:17;;;;;;;;;;;23.60;77.80;;;;;;5073731;28;20400;-86
2023/06/02 10:49:53;;;;;;;;;;;24.20;76.90;;;;;;5073632;28;19908;-86
2023/06/02 10:52:18;;;;;;;;;;;24.60;74.40;;;;;;5068298;28;19953;-86
2023/06/02 10:54:44;;;;;;;;;;;24.70;77.00;;;;;;5055771;28;19965;-86
2023/06/02 10:57:11;;;;;;;;;;;24.20;77.20;;;;;;5074320;28;20010;-87
2023/06/02 10:59:37;;;;;;;;;;;24.40;74.80;;;;;;5074206;28;19998;-86
2023/06/02 11:02:03;;;;;;;;;;;24.50;74.10;;;;;;5072401;28;19977;-86
2023/06/02 11:04:31;;;;;;;;;;;24.50;74.70;;;;;;5074213;28;19905;-86
2023/06/02 11:07:18;;;;;;;;;;;24.40;73.70;;;;;;5074823;28;20413;-86
2023/06/02 11:09:44;;;;;;;;;;;24.30;75.90;;;;;;5079953;28;19908;-86
2023/06/02 11:12:10;;;;;;;;;;;24.20;75.90;;;;;;5077485;28;19908;-86
2023/06/02 11:14:54;;;;;;;;;;;23.70;77.60;;;;;;5079985;28;19934;-86
2023/06/02 11:17:32;;;;;;;;;;;23.70;77.90;;;;;;5060906;28;19908;-86
2023/06/02 11:19:58;;;;;;;;;;;24.20;76.10;;;;;;5078901;28;19908;-86
2023/06/02 11:22:46;;;;;;;;;;;24.60;76.70;;;;;;5075964;28;20342;-86
2023/06/02 11:25:13;;;;;;;;;;;25.00;75.00;;;;;;5068717;28;19909;-86
2023/06/02 11:27:43;;;;;;;;;;;24.80;73.40;;;;;;5073565;28;19966;-86
2023/06/02 11:30:10;;;;;;;;;;;24.50;75.20;;;;;;5074950;28;20344;-86
2023/06/02 11:32:36;;;;;;;;;;;24.70;72.00;;;;;;5075065;28;19910;-86
2023/06/02 11:35:02;;;;;;;;;;;25.10;71.00;;;;;;5075437;28;19940;-86
2023/06/02 11:37:27;;;;;;;;;;;24.90;73.80;;;;;;5075327;28;19908;-86
2023/06/02 11:39:54;;;;;;;;;;;25.00;76.00;;;;;;5075167;28;19916;-86
2023/06/02 11:42:19;;;;;;;;;;;25.20;72.00;;;;;;5076050;28;19908;-86
2023/06/02 11:44:49;;;;;;;;;;;25.30;72.40;;;;;;5074813;28;19916;-87
2023/06/02 11:47:21;;;;;;;;;;;25.10;74.40;;;;;;5075807;28;20271;-87
2023/06/02 11:49:47;;;;;;;;;;;25.00;74.80;;;;;;5058611;28;19923;-86
2023/06/02 11:52:13;;;;;;;;;;;24.90;74.20;;;;;;5072895;28;19908;-87
2023/06/02 11:54:54;;;;;;;;;;;24.90;74.60;;;;;;5070555;28;19915;-88
2023/06/02 11:57:25;;;;;;;;;;;25.00;76.70;;;;;;5058689;28;20249;-85
2023/06/02 12:00:11;;;;;;;;;;;25.00;73.70;;;;;;5059211;28;19967;-87
2023/06/02 12:02:43;;;;;;;;;;;24.80;75.20;;;;;;5064380;28;19913;-86
2023/06/02 12:05:26;;;;;;;;;;;24.40;77.30;;;;;;5063997;28;20008;-87
2023/06/02 12:07:52;;;;;;;;;;;24.30;76.60;;;;;;5067475;28;21001;-87
2023/06/02 12:10:17;;;;;;;;;;;24.30;79.00;;;;;;5108737;28;19905;-87
2023/06/02 12:12:46;;;;;;;;;;;24.20;78.60;;;;;;5058492;28;19915;-87
2023/06/02 12:15:13;;;;;;;;;;;23.70;77.00;;;;;;5068194;28;20326;-88
2023/06/02 12:17:39;;;;;;;;;;;24.10;78.50;;;;;;5074472;28;19915;-88
2023/06/02 12:20:05;;;;;;;;;;;24.30;77.30;;;;;;5074670;28;19918;-88
2023/06/02 12:22:30;;;;;;;;;;;24.70;77.80;;;;;;5074472;28;19998;-86
2023/06/02 12:24:56;;;;;;;;;;;25.20;78.20;;;;;;5074290;28;19908;-85
2023/06/02 12:27:22;;;;;;;;;;;25.60;74.40;;;;;;5074815;28;20271;-86
2023/06/02 12:29:48;;;;;;;;;;;26.00;74.10;;;;;;5057459;28;19919;-85
2023/06/02 12:35:24;;;;;;;;;;;26.60;70.80;;;;;;5103953;28;19912;-85
2023/06/02 12:37:50;;;;;;;;;;;26.70;68.70;;;;;;5104919;28;19995;-86
2023/06/02 12:40:15;;;;;;;;;;;27.00;68.60;;;;;;5074279;28;19916;-87
2023/06/02 12:42:41;;;;;;;;;;;27.80;69.30;;;;;;5066965;28;20344;-86
2023/06/02 12:45:08;;;;;;;;;;;27.70;67.40;;;;;;5074897;28;20413;-86
2023/06/02 12:47:34;;;;;;;;;;;27.10;71.70;;;;;;5073561;28;19970;-86
2023/06/02 12:50:00;;;;;;;;;;;26.80;70.30;;;;;;5074172;28;20260;-86
2023/06/02 12:52:25;;;;;;;;;;;25.90;70.30;;;;;;5075497;28;19904;-86
2023/06/02 12:54:51;;;;;;;;;;;25.50;70.20;;;;;;5068074;28;19909;-86
2023/06/02 12:57:18;;;;;;;;;;;25.80;71.50;;;;;;5075378;28;19987;-87
2023/06/02 12:59:43;;;;;;;;;;;26.00;73.20;;;;;;5074212;28;19909;-85
2023/06/02 13:02:09;;;;;;;;;;;25.80;72.20;;;;;;5074074;28;19931;-85
2023/06/02 13:04:35;;;;;;;;;;;25.60;72.20;;;;;;5074116;28;19908;-86
2023/06/02 13:07:01;;;;;;;;;;;25.70;69.30;;;;;;5071832;28;19905;-86
2023/06/02 13:09:27;;;;;;;;;;;26.50;72.30;;;;;;5070381;28;19915;-87
2023/06/02 13:11:53;;;;;;;;;;;26.50;70.00;;;;;;5073514;28;19908;-86
2023/06/02 13:14:18;;;;;;;;;;;26.90;68.90;;;;;;5073641;28;20019;-87
2023/06/02 13:16:44;;;;;;;;;;;26.70;69.10;;;;;;5073303;28;20278;-86
2023/06/02 13:19:10;;;;;;;;;;;26.80;67.40;;;;;;5073471;28;19908;-86
2023/06/02 13:21:35;;;;;;;;;;;27.00;67.50;;;;;;5073406;28;19916;-86
2023/06/02 13:24:01;;;;;;;;;;;26.70;68.50;;;;;;5073775;28;19909;-86
2023/06/02 13:26:27;;;;;;;;;;;26.60;66.50;;;;;;5073112;28;20306;-87
2023/06/02 13:28:53;;;;;;;;;;;26.70;67.80;;;;;;5071570;28;19912;-86
2023/06/02 13:31:19;;;;;;;;;;;26.60;67.90;;;;;;5073450;28;19919;-86
2023/06/02 13:33:45;;;;;;;;;;;26.60;70.30;;;;;;5073483;28;19912;-86
2023/06/02 13:36:10;;;;;;;;;;;26.90;68.10;;;;;;5073698;28;19908;-86
2023/06/02 13:38:36;;;;;;;;;;;27.20;69.00;;;;;;5073835;28;19909;-86
2023/06/02 13:41:02;;;;;;;;;;;27.50;66.60;;;;;;5074336;28;19908;-86
2023/06/02 13:43:27;;;;;;;;;;;26.90;64.50;;;;;;5075457;28;19909;-87
2023/06/02 13:45:53;;;;;;;;;;;26.60;67.90;;;;;;5074438;28;19995;-87
2023/06/02 13:48:18;;;;;;;;;;;26.70;66.10;;;;;;5073433;28;20282;-86
2023/06/02 13:50:44;;;;;;;;;;;26.70;67.20;;;;;;5073185;28;19931;-86
2023/06/02 13:53:10;;;;;;;;;;;26.70;68.30;;;;;;5073362;28;19908;-87
2023/06/02 13:55:36;;;;;;;;;;;27.00;66.30;;;;;;5072925;28;20375;-87
2023/06/02 13:58:01;;;;;;;;;;;27.10;69.40;;;;;;5073733;28;19915;-87
2023/06/02 14:00:27;;;;;;;;;;;27.40;64.30;;;;;;5073443;28;19915;-87
2023/06/02 14:02:54;;;;;;;;;;;27.70;64.80;;;;;;5073105;28;19919;-87
2023/06/02 14:05:20;;;;;;;;;;;27.80;64.20;;;;;;5073255;28;20244;-87
2023/06/02 14:07:46;;;;;;;;;;;28.00;64.40;;;;;;5073051;28;20011;-87
2023/06/02 14:10:12;;;;;;;;;;;27.80;65.10;;;;;;5073815;28;20020;-87
2023/06/02 14:12:37;;;;;;;;;;;27.80;63.70;;;;;;5073758;28;20328;-87
2023/06/02 14:15:03;;;;;;;;;;;27.80;65.40;;;;;;5073183;28;19908;-87
2023/06/02 14:17:29;;;;;;;;;;;27.70;63.00;;;;;;5073385;28;19931;-87
2023/06/02 14:19:55;;;;;;;;;;;28.20;62.30;;;;;;5073260;28;19912;-87
2023/06/02 14:22:36;;;;;;;;;;;28.30;63.40;;;;;;5072995;28;20295;-87
2023/06/02 14:25:14;;;;;;;;;;;28.60;63.80;;;;;;5072739;28;19978;-87
2023/06/02 14:27:39;;;;;;;;;;;28.00;61.10;;;;;;5074269;28;19922;-88